createdAt,value
2023-05-12T00:00:12.726Z,249.32
2023-05-12T00:01:12.785Z,248.74
2023-05-12T00:02:12.787Z,247.56
2023-05-12T00:03:12.900Z,246.86
2023-05-12T00:04:12.962Z,247.14
2023-05-12T00:05:12.967Z,245.74
2023-05-12T00:06:13.016Z,245.66
2023-05-12T00:07:13.069Z,248.13
2023-05-12T00:08:13.114Z,247.74
2023-05-12T00:09:13.192Z,248.07
2023-05-12T00:10:13.223Z,246.52
2023-05-12T00:11:13.324Z,247.14
2023-05-12T00:12:13.371Z,250.00
2023-05-12T00:13:13.446Z,247.60
2023-05-12T00:14:13.425Z,247.48
2023-05-12T00:15:13.540Z,247.61
2023-05-12T00:16:13.576Z,246.72
2023-05-12T00:17:13.574Z,245.94
2023-05-12T00:18:13.666Z,246.33
2023-05-12T00:19:13.701Z,247.02
2023-05-12T00:20:13.770Z,245.83
2023-05-12T00:21:13.791Z,248.06
2023-05-12T00:22:13.835Z,247.70
2023-05-12T00:23:13.916Z,245.62
2023-05-12T00:24:13.947Z,246.00
2023-05-12T00:25:14.030Z,247.42
2023-05-12T00:26:14.057Z,247.64
2023-05-12T00:27:14.129Z,245.51
2023-05-12T00:28:14.160Z,249.79
2023-05-12T00:29:14.204Z,247.30
2023-05-12T00:30:14.312Z,248.85
2023-05-12T00:31:14.323Z,247.61
2023-05-12T00:32:14.420Z,249.98
2023-05-12T00:33:14.489Z,247.82
2023-05-12T00:34:14.531Z,246.89
2023-05-12T00:35:14.587Z,246.36
2023-05-12T00:36:14.596Z,248.77
2023-05-12T00:37:14.641Z,248.00
2023-05-12T00:38:14.760Z,249.55
2023-05-12T00:39:14.769Z,248.28
2023-05-12T00:40:14.837Z,248.30
2023-05-12T00:41:14.871Z,247.86
2023-05-12T00:42:14.954Z,246.99
2023-05-12T00:43:14.990Z,245.39
2023-05-12T00:44:15.063Z,246.49
2023-05-12T00:45:15.164Z,248.09
2023-05-12T00:46:15.230Z,249.40
2023-05-12T00:47:15.236Z,247.85
2023-05-12T00:48:15.300Z,248.19
2023-05-12T00:49:15.340Z,243.59
2023-05-12T00:50:15.374Z,248.09
2023-05-12T00:51:15.458Z,245.33
2023-05-12T00:52:15.483Z,246.78
2023-05-12T00:53:15.562Z,248.55
2023-05-12T00:54:15.648Z,246.50
2023-05-12T00:55:15.706Z,248.61
2023-05-12T00:56:15.768Z,245.20
2023-05-12T00:57:15.804Z,245.51
2023-05-12T00:58:15.881Z,247.32
2023-05-12T00:59:15.931Z,247.60
2023-05-12T01:00:16.012Z,249.95
2023-05-12T01:01:16.106Z,246.61
2023-05-12T01:02:16.173Z,245.48
2023-05-12T01:03:16.224Z,247.49
2023-05-12T01:04:16.305Z,248.10
2023-05-12T01:05:16.289Z,246.85
2023-05-12T01:06:16.343Z,247.04
2023-05-12T01:07:16.407Z,247.82
2023-05-12T01:08:16.458Z,248.81
2023-05-12T01:09:16.517Z,246.99
2023-05-12T01:10:16.616Z,247.19
2023-05-12T01:11:16.611Z,248.89
2023-05-12T01:12:16.689Z,248.67
2023-05-12T01:13:16.780Z,248.23
2023-05-12T01:14:16.836Z,248.76
2023-05-12T01:15:17.002Z,245.76
2023-05-12T01:16:16.948Z,245.20
2023-05-12T01:17:17.052Z,246.93
2023-05-12T01:18:17.111Z,245.39
2023-05-12T01:19:17.221Z,249.35
2023-05-12T01:20:17.357Z,247.15
2023-05-12T01:21:17.205Z,247.93
2023-05-12T01:22:17.383Z,245.89
2023-05-12T01:23:17.309Z,247.33
2023-05-12T01:24:17.391Z,248.17
2023-05-12T01:25:17.494Z,247.01
2023-05-12T01:26:17.558Z,248.47
2023-05-12T01:27:17.618Z,247.61
2023-05-12T01:28:17.653Z,248.23
2023-05-12T01:29:17.733Z,246.73
2023-05-12T01:30:18.033Z,249.69
2023-05-12T01:31:20.246Z,247.08
2023-05-12T01:32:17.855Z,247.34
2023-05-12T01:33:17.858Z,247.68
2023-05-12T01:34:17.821Z,246.78
2023-05-12T01:35:17.806Z,247.34
2023-05-12T01:36:17.859Z,243.63
2023-05-12T01:37:17.820Z,246.28
2023-05-12T01:38:17.800Z,245.67
2023-05-12T01:39:17.800Z,245.89
2023-05-12T01:40:18.092Z,247.39
2023-05-12T01:41:17.810Z,248.65
2023-05-12T01:42:17.772Z,248.74
2023-05-12T01:43:17.770Z,248.20
2023-05-12T01:44:17.756Z,247.68
2023-05-12T01:45:17.769Z,249.37
2023-05-12T01:46:17.813Z,247.29
2023-05-12T01:47:17.717Z,248.97
2023-05-12T01:48:17.735Z,247.66
2023-05-12T01:49:17.686Z,249.79
2023-05-12T01:50:17.842Z,247.55
2023-05-12T01:51:17.704Z,246.02
2023-05-12T01:52:17.701Z,249.48
2023-05-12T01:53:17.732Z,247.78
2023-05-12T01:54:17.681Z,249.67
2023-05-12T01:55:17.699Z,246.74
2023-05-12T01:56:17.681Z,248.90
2023-05-12T01:57:17.697Z,248.51
2023-05-12T01:58:17.709Z,248.77
2023-05-12T01:59:17.717Z,249.38
2023-05-12T02:00:18.058Z,247.77
2023-05-12T02:01:17.686Z,247.46
2023-05-12T02:02:17.733Z,248.28
2023-05-12T02:03:17.718Z,248.30
2023-05-12T02:04:17.714Z,245.41
2023-05-12T02:05:17.691Z,247.70
2023-05-12T02:06:17.771Z,246.55
2023-05-12T02:07:17.776Z,247.89
2023-05-12T02:08:17.838Z,246.28
2023-05-12T02:09:17.877Z,248.36
2023-05-12T02:10:18.166Z,247.53
2023-05-12T02:11:18.009Z,248.37
2023-05-12T02:12:18.037Z,246.79
2023-05-12T02:13:18.126Z,246.92
2023-05-12T02:14:18.167Z,246.82
2023-05-12T02:15:18.224Z,249.33
2023-05-12T02:16:18.291Z,247.44
2023-05-12T02:17:18.365Z,247.97
2023-05-12T02:18:18.389Z,248.77
2023-05-12T02:19:18.408Z,249.33
2023-05-12T02:20:18.718Z,248.53
2023-05-12T02:21:18.543Z,248.10
2023-05-12T02:22:18.558Z,249.10
2023-05-12T02:23:18.624Z,248.08
2023-05-12T02:24:18.643Z,247.06
2023-05-12T02:25:18.709Z,247.89
2023-05-12T02:26:18.742Z,247.56
2023-05-12T02:27:18.778Z,248.59
2023-05-12T02:28:18.770Z,247.61
2023-05-12T02:29:18.887Z,246.55
2023-05-12T02:30:19.044Z,245.62
2023-05-12T02:31:19.042Z,245.27
2023-05-12T02:32:19.016Z,249.25
2023-05-12T02:33:19.056Z,247.70
2023-05-12T02:34:19.110Z,248.67
2023-05-12T02:35:19.204Z,249.32
2023-05-12T02:36:19.215Z,248.00
2023-05-12T02:37:19.233Z,248.40
2023-05-12T02:38:19.261Z,246.59
2023-05-12T02:39:19.333Z,247.86
2023-05-12T02:40:19.451Z,246.01
2023-05-12T02:41:19.403Z,246.86
2023-05-12T02:42:19.450Z,248.62
2023-05-12T02:43:19.460Z,247.63
2023-05-12T02:44:19.510Z,247.05
2023-05-12T02:45:19.561Z,247.76
2023-05-12T02:46:19.625Z,247.88
2023-05-12T02:47:19.592Z,247.90
2023-05-12T02:48:19.642Z,247.08
2023-05-12T02:49:19.649Z,247.65
2023-05-12T02:50:19.981Z,247.33
2023-05-12T02:51:19.671Z,248.44
2023-05-12T02:52:19.646Z,248.14
2023-05-12T02:53:19.729Z,246.26
2023-05-12T02:54:19.747Z,248.98
2023-05-12T02:55:19.756Z,248.92
2023-05-12T02:56:19.742Z,248.30
2023-05-12T02:57:19.758Z,246.70
2023-05-12T02:58:19.780Z,246.15
2023-05-12T02:59:19.783Z,246.32
2023-05-12T03:00:19.917Z,248.91
2023-05-12T03:01:19.861Z,247.96
2023-05-12T03:02:19.866Z,247.66
2023-05-12T03:03:19.871Z,250.00
2023-05-12T03:04:19.849Z,246.62
2023-05-12T03:05:19.904Z,248.14
2023-05-12T03:06:19.858Z,247.33
2023-05-12T03:07:19.884Z,247.30
2023-05-12T03:08:19.882Z,246.36
2023-05-12T03:09:19.859Z,247.17
2023-05-12T03:10:20.127Z,249.38
2023-05-12T03:11:19.862Z,247.21
2023-05-12T03:12:19.889Z,247.66
2023-05-12T03:13:19.901Z,243.61
2023-05-12T03:14:19.884Z,246.82
2023-05-12T03:15:19.911Z,248.67
2023-05-12T03:16:19.975Z,249.00
2023-05-12T03:17:19.945Z,249.21
2023-05-12T03:18:20.017Z,247.24
2023-05-12T03:19:19.931Z,249.73
2023-05-12T03:20:20.267Z,248.93
2023-05-12T03:21:19.952Z,247.23
2023-05-12T03:22:19.974Z,248.74
2023-05-12T03:23:19.963Z,247.28
2023-05-12T03:24:19.965Z,248.58
2023-05-12T03:25:19.994Z,247.02
2023-05-12T03:26:19.994Z,247.56
2023-05-12T03:27:19.974Z,248.08
2023-05-12T03:28:19.988Z,248.06
2023-05-12T03:29:20.022Z,248.08
2023-05-12T03:30:20.276Z,247.66
2023-05-12T03:31:20.011Z,246.34
2023-05-12T03:32:20.058Z,246.33
2023-05-12T03:33:20.010Z,247.91
2023-05-12T03:34:20.023Z,247.87
2023-05-12T03:35:19.996Z,247.54
2023-05-12T03:36:19.994Z,248.32
2023-05-12T03:37:20.048Z,246.82
2023-05-12T03:38:19.964Z,248.68
2023-05-12T03:39:19.969Z,248.72
2023-05-12T03:40:20.111Z,249.40
2023-05-12T03:41:19.974Z,248.03
2023-05-12T03:42:19.947Z,246.87
2023-05-12T03:43:20.091Z,249.15
2023-05-12T03:44:19.957Z,248.83
2023-05-12T03:45:19.966Z,248.26
2023-05-12T03:46:20.058Z,246.92
2023-05-12T03:47:20.078Z,247.45
2023-05-12T03:48:20.030Z,247.50
2023-05-12T03:49:19.998Z,249.35
2023-05-12T03:50:20.154Z,248.65
2023-05-12T03:51:19.951Z,249.53
2023-05-12T03:52:19.947Z,248.37
2023-05-12T03:53:20.013Z,249.60
2023-05-12T03:54:19.977Z,246.11
2023-05-12T03:55:19.965Z,245.47
2023-05-12T03:56:19.970Z,247.11
2023-05-12T03:57:19.998Z,246.98
2023-05-12T03:58:19.972Z,246.89
2023-05-12T03:59:20.002Z,245.29
2023-05-12T04:00:20.274Z,247.00
2023-05-12T04:01:20.022Z,246.16
2023-05-12T04:02:20.036Z,247.23
2023-05-12T04:03:20.115Z,242.13
2023-05-12T04:04:19.990Z,242.84
2023-05-12T04:05:19.998Z,241.32
2023-05-12T04:06:20.011Z,240.62
2023-05-12T04:07:20.009Z,236.37
2023-05-12T04:08:20.026Z,234.52
2023-05-12T04:09:20.027Z,233.13
2023-05-12T04:10:20.320Z,228.48
2023-05-12T04:11:19.979Z,225.17
2023-05-12T04:12:20.050Z,222.87
2023-05-12T04:13:20.006Z,224.00
2023-05-12T04:14:26.495Z,218.67
2023-05-12T04:15:21.026Z,218.72
2023-05-12T04:16:20.079Z,215.22
2023-05-12T04:17:20.056Z,212.43
2023-05-12T04:18:20.079Z,210.39
2023-05-12T04:19:19.996Z,206.33
2023-05-12T04:20:20.179Z,202.78
2023-05-12T04:21:20.005Z,201.83
2023-05-12T04:22:20.006Z,198.54
2023-05-12T04:23:20.020Z,195.98
2023-05-12T04:24:19.960Z,197.69
2023-05-12T04:25:19.969Z,194.36
2023-05-12T04:26:19.977Z,192.54
2023-05-12T04:27:19.959Z,191.60
2023-05-12T04:28:19.945Z,186.79
2023-05-12T04:29:19.965Z,185.68
2023-05-12T04:30:20.226Z,184.46
2023-05-12T04:31:20.029Z,183.18
2023-05-12T04:32:20.104Z,184.71
2023-05-12T04:33:19.930Z,183.13
2023-05-12T04:34:19.970Z,184.56
2023-05-12T04:35:19.911Z,184.25
2023-05-12T04:36:19.928Z,181.85
2023-05-12T04:37:19.951Z,184.63
2023-05-12T04:38:19.967Z,184.13
2023-05-12T04:39:20.025Z,184.63
2023-05-12T04:40:20.265Z,183.85
2023-05-12T04:41:19.988Z,183.29
2023-05-12T04:42:20.012Z,186.12
2023-05-12T04:44:20.007Z,185.36
2023-05-12T04:45:20.324Z,186.00
2023-05-12T04:46:20.055Z,184.78
2023-05-12T04:47:20.061Z,186.37
2023-05-12T04:48:19.981Z,187.03
2023-05-12T04:49:19.987Z,186.22
2023-05-12T04:50:19.964Z,186.97
2023-05-12T04:51:20.039Z,186.51
2023-05-12T04:52:20.013Z,186.37
2023-05-12T04:53:19.963Z,187.48
2023-05-12T04:54:19.972Z,186.21
2023-05-12T04:55:20.095Z,188.70
2023-05-12T04:56:19.976Z,186.86
2023-05-12T04:57:19.994Z,187.46
2023-05-12T04:58:19.950Z,187.44
2023-05-12T04:59:19.992Z,189.39
2023-05-12T05:00:19.968Z,186.73
2023-05-12T05:01:19.954Z,187.90
2023-05-12T05:02:19.932Z,189.53
2023-05-12T05:03:20.123Z,188.14
2023-05-12T05:04:19.929Z,186.83
2023-05-12T05:05:20.032Z,188.75
2023-05-12T05:06:19.906Z,189.27
2023-05-12T05:07:19.924Z,187.40
2023-05-12T05:08:19.911Z,188.90
2023-05-12T05:09:20.132Z,188.92
2023-05-12T05:10:19.863Z,187.77
2023-05-12T05:11:19.842Z,189.65
2023-05-12T05:12:19.865Z,189.38
2023-05-12T05:13:19.852Z,186.53
2023-05-12T05:14:19.820Z,189.00
2023-05-12T05:15:20.126Z,189.63
2023-05-12T05:16:19.859Z,190.94
2023-05-12T05:17:19.827Z,186.97
2023-05-12T05:18:21.690Z,188.55
2023-05-12T05:19:26.321Z,188.69
2023-05-12T05:20:20.879Z,188.92
2023-05-12T05:21:19.810Z,189.51
2023-05-12T05:22:19.798Z,190.29
2023-05-12T05:23:19.783Z,191.97
2023-05-12T05:24:19.827Z,191.78
2023-05-12T05:25:20.122Z,189.08
2023-05-12T05:26:19.763Z,191.88
2023-05-12T05:27:19.732Z,190.25
2023-05-12T05:28:19.881Z,191.13
2023-05-12T05:29:19.733Z,189.08
2023-05-12T05:30:19.788Z,190.56
2023-05-12T05:31:19.861Z,190.02
2023-05-12T05:32:19.882Z,191.61
2023-05-12T05:33:19.951Z,190.40
2023-05-12T05:34:20.066Z,198.60
2023-05-12T05:35:20.130Z,201.72
2023-05-12T05:36:20.082Z,207.53
2023-05-12T05:37:20.048Z,211.55
2023-05-12T05:38:20.129Z,211.70
2023-05-12T05:39:20.196Z,212.17
2023-05-12T05:40:20.226Z,210.90
2023-05-12T05:41:21.152Z,208.46
2023-05-12T05:42:20.390Z,211.43
2023-05-12T05:43:20.454Z,215.26
2023-05-12T05:44:20.460Z,213.23
2023-05-12T05:45:20.894Z,217.73
2023-05-12T05:46:20.606Z,218.29
2023-05-12T05:47:20.589Z,221.67
2023-05-12T05:48:21.197Z,222.62
2023-05-12T05:49:20.568Z,223.89
2023-05-12T05:50:20.603Z,226.72
2023-05-12T05:51:20.650Z,229.34
2023-05-12T05:52:20.732Z,232.69
2023-05-12T05:53:20.661Z,233.80
2023-05-12T05:54:20.729Z,237.17
2023-05-12T05:55:20.849Z,240.03
2023-05-12T05:56:21.255Z,239.60
2023-05-12T05:57:21.210Z,239.89
2023-05-12T05:58:21.268Z,247.91
2023-05-12T05:59:20.808Z,250.00
2023-05-12T06:00:21.185Z,248.42
2023-05-12T06:01:20.953Z,247.58
2023-05-12T06:02:21.085Z,250.00
2023-05-12T06:03:21.135Z,249.70
2023-05-12T06:04:21.196Z,248.80
2023-05-12T06:05:21.253Z,247.10
2023-05-12T06:06:21.117Z,249.69
2023-05-12T06:07:22.276Z,250.00
2023-05-12T06:08:21.182Z,246.78
2023-05-12T06:09:21.159Z,249.48
2023-05-12T06:10:21.382Z,246.69
2023-05-12T06:11:21.229Z,244.67
2023-05-12T06:12:21.178Z,249.42
2023-05-12T06:13:21.194Z,248.04
2023-05-12T06:14:21.235Z,250.66
2023-05-12T06:15:21.466Z,250.00
2023-05-12T06:16:21.268Z,245.29
2023-05-12T06:17:21.260Z,246.84
2023-05-12T06:18:21.250Z,250.00
2023-05-12T06:19:21.250Z,248.50
2023-05-12T06:20:21.250Z,250.00
2023-05-12T06:21:21.327Z,245.82
2023-05-12T06:22:21.341Z,248.46
2023-05-12T06:23:21.332Z,246.94
2023-05-12T06:24:21.343Z,248.63
2023-05-12T06:25:21.649Z,247.46
2023-05-12T06:26:21.373Z,248.57
2023-05-12T06:27:21.408Z,247.96
2023-05-12T06:28:21.493Z,247.55
2023-05-12T06:29:21.483Z,249.28
2023-05-12T06:30:21.566Z,249.31
2023-05-12T06:31:21.551Z,247.24
2023-05-12T06:32:21.672Z,250.00
2023-05-12T06:33:21.658Z,245.18
2023-05-12T06:34:21.692Z,247.41
2023-05-12T06:35:21.750Z,246.95
2023-05-12T06:36:21.733Z,249.27
2023-05-12T06:37:21.679Z,247.42
2023-05-12T06:38:21.775Z,245.63
2023-05-12T06:39:21.763Z,247.85
2023-05-12T06:40:21.769Z,247.52
2023-05-12T06:41:21.874Z,243.79
2023-05-12T06:42:21.877Z,245.19
2023-05-12T06:43:22.183Z,247.13
2023-05-12T06:44:21.916Z,244.21
2023-05-12T06:45:22.261Z,242.08
2023-05-12T06:46:22.018Z,245.70
2023-05-12T06:47:22.090Z,245.61
2023-05-12T06:48:22.055Z,247.73
2023-05-12T06:49:22.676Z,247.68
2023-05-12T06:50:22.129Z,248.99
2023-05-12T06:51:22.177Z,247.25
2023-05-12T06:52:22.662Z,247.21
2023-05-12T06:53:24.087Z,247.99
2023-05-12T06:54:22.216Z,248.93
2023-05-12T06:55:22.753Z,247.20
2023-05-12T06:56:22.202Z,247.59
2023-05-12T06:57:22.187Z,251.06
2023-05-12T06:58:22.269Z,268.52
2023-05-12T06:59:22.197Z,260.53
2023-05-12T07:00:22.227Z,250.30
2023-05-12T07:01:22.292Z,240.52
2023-05-12T07:02:22.165Z,235.67
2023-05-12T07:03:22.250Z,243.90
2023-05-12T07:04:22.119Z,247.63
2023-05-12T07:05:22.285Z,246.80
2023-05-12T07:06:22.141Z,247.67
2023-05-12T07:07:22.154Z,244.52
2023-05-12T07:08:22.136Z,238.68
2023-05-12T07:09:22.094Z,239.52
2023-05-12T07:10:22.088Z,238.00
2023-05-12T07:11:22.104Z,232.23
2023-05-12T07:12:22.191Z,233.47
2023-05-12T07:13:22.082Z,229.62
2023-05-12T07:14:22.109Z,225.07
2023-05-12T07:15:22.264Z,224.09
2023-05-12T07:16:22.103Z,242.65
2023-05-12T07:17:22.086Z,250.00
2023-05-12T07:18:22.089Z,235.67
2023-05-12T07:19:22.052Z,236.80
2023-05-12T07:20:22.034Z,233.65
2023-05-12T07:21:22.030Z,236.58
2023-05-12T07:22:22.050Z,234.44
2023-05-12T07:23:22.038Z,232.21
2023-05-12T07:24:21.999Z,228.46
2023-05-12T07:25:22.272Z,228.67
2023-05-12T07:26:21.999Z,228.11
2023-05-12T07:27:21.999Z,224.64
2023-05-12T07:28:21.975Z,216.61
2023-05-12T07:29:22.008Z,218.43
2023-05-12T07:30:21.987Z,217.19
2023-05-12T07:31:22.568Z,211.87
2023-05-12T07:32:22.037Z,204.99
2023-05-12T07:33:21.921Z,201.55
2023-05-12T07:34:21.966Z,197.11
2023-05-12T07:35:22.249Z,182.33
2023-05-12T07:36:22.177Z,179.42
2023-05-12T07:37:22.706Z,171.14
2023-05-12T07:38:22.021Z,171.38
2023-05-12T07:39:22.067Z,168.20
2023-05-12T07:40:22.110Z,156.45
2023-05-12T07:41:22.143Z,149.42
2023-05-12T07:42:22.196Z,139.67
2023-05-12T07:43:22.198Z,132.39
2023-05-12T07:44:22.330Z,130.69
2023-05-12T07:45:22.322Z,127.62
2023-05-12T07:46:22.403Z,118.82
2023-05-12T07:47:22.478Z,109.11
2023-05-12T07:48:22.501Z,100.98
2023-05-12T07:49:22.567Z,96.16
2023-05-12T07:50:22.654Z,90.41
2023-05-12T07:51:22.684Z,87.87
2023-05-12T07:52:22.766Z,82.78
2023-05-12T07:53:22.864Z,78.31
2023-05-12T07:54:22.981Z,76.44
2023-05-12T07:55:23.185Z,67.27
2023-05-12T07:56:23.036Z,63.46
2023-05-12T07:57:23.108Z,60.00
2023-05-12T07:58:23.082Z,53.63
2023-05-12T07:59:23.084Z,51.08
2023-05-12T08:00:23.503Z,49.90
2023-05-12T08:01:23.165Z,49.20
2023-05-12T08:02:23.339Z,48.28
2023-05-12T08:03:23.310Z,45.14
2023-05-12T08:04:23.311Z,42.20
2023-05-12T08:05:23.331Z,40.20
2023-05-12T08:06:24.935Z,34.57
2023-05-12T08:07:23.315Z,34.03
2023-05-12T08:08:23.321Z,37.51
2023-05-12T08:09:23.400Z,36.32
2023-05-12T08:10:23.343Z,35.15
2023-05-12T08:11:23.402Z,34.80
2023-05-12T08:12:23.414Z,36.38
2023-05-12T08:13:23.440Z,36.84
2023-05-12T08:14:23.436Z,35.97
2023-05-12T08:15:23.466Z,32.99
2023-05-12T08:16:23.665Z,33.41
2023-05-12T08:17:23.683Z,36.71
2023-05-12T08:18:23.645Z,34.18
2023-05-12T08:19:23.585Z,34.41
2023-05-12T08:20:23.623Z,35.47
2023-05-12T08:21:23.653Z,31.61
2023-05-12T08:22:23.675Z,31.85
2023-05-12T08:23:23.801Z,27.09
2023-05-12T08:24:23.766Z,26.11
2023-05-12T08:25:23.811Z,29.31
2023-05-12T08:26:24.193Z,20.35
2023-05-12T08:27:23.825Z,26.32
2023-05-12T08:28:23.866Z,28.76
2023-05-12T08:29:23.973Z,21.91
2023-05-12T08:30:23.971Z,24.73
2023-05-12T08:31:24.002Z,26.87
2023-05-12T08:32:24.170Z,29.78
2023-05-12T08:33:24.069Z,27.97
2023-05-12T08:34:24.164Z,28.13
2023-05-12T08:35:24.142Z,25.00
2023-05-12T08:36:24.186Z,24.98
2023-05-12T08:37:24.190Z,25.00
2023-05-12T08:38:24.205Z,25.00
2023-05-12T08:39:24.223Z,25.95
2023-05-12T08:40:24.242Z,21.70
2023-05-12T08:41:24.228Z,24.29
2023-05-12T08:42:24.230Z,18.98
2023-05-12T08:43:24.250Z,24.00
2023-05-12T08:44:24.306Z,25.30
2023-05-12T08:45:24.346Z,29.57
2023-05-12T08:46:24.363Z,36.20
2023-05-12T08:47:24.713Z,51.57
2023-05-12T08:48:24.443Z,54.03
2023-05-12T08:49:24.470Z,61.02
2023-05-12T08:50:24.500Z,67.78
2023-05-12T08:51:24.525Z,66.67
2023-05-12T08:52:24.570Z,65.71
2023-05-12T08:53:24.574Z,63.13
2023-05-12T08:54:24.548Z,64.71
2023-05-12T08:55:29.576Z,63.55
2023-05-12T08:57:24.580Z,63.30
2023-05-12T08:58:30.617Z,60.40
2023-05-12T08:59:25.566Z,62.78
2023-05-12T09:00:24.717Z,63.72
2023-05-12T09:01:24.585Z,66.41
2023-05-12T09:02:24.778Z,70.69
2023-05-12T09:03:24.558Z,70.82
2023-05-12T09:04:24.658Z,71.55
2023-05-12T09:05:24.517Z,69.92
2023-05-12T09:06:24.532Z,69.74
2023-05-12T09:07:24.555Z,61.21
2023-05-12T09:08:24.495Z,63.24
2023-05-12T09:09:24.533Z,67.24
2023-05-12T09:11:24.533Z,68.61
2023-05-12T09:12:24.561Z,73.78
2023-05-12T09:13:24.527Z,75.91
2023-05-12T09:14:24.533Z,75.46
2023-05-12T09:15:24.482Z,78.81
2023-05-12T09:16:24.556Z,78.56
2023-05-12T09:17:24.524Z,76.33
2023-05-12T09:18:24.500Z,76.12
2023-05-12T09:19:24.519Z,75.43
2023-05-12T09:21:25.486Z,78.72
2023-05-12T09:22:24.501Z,72.17
2023-05-12T09:23:24.477Z,77.65
2023-05-12T09:24:24.450Z,76.11
2023-05-12T09:25:24.496Z,79.08
2023-05-12T09:26:24.429Z,82.44
2023-05-12T09:27:24.451Z,82.84
2023-05-12T09:28:24.418Z,75.16
2023-05-12T09:29:31.197Z,61.86
2023-05-12T09:30:27.227Z,60.43
2023-05-12T09:31:24.448Z,62.26
2023-05-12T09:32:24.427Z,61.21
2023-05-12T09:33:24.399Z,54.84
2023-05-12T09:34:24.381Z,50.74
2023-05-12T09:35:24.386Z,54.59
2023-05-12T09:36:24.521Z,61.96
2023-05-12T09:37:24.391Z,66.19
2023-05-12T09:38:24.367Z,62.48
2023-05-12T09:39:24.378Z,62.48
2023-05-12T09:40:24.347Z,58.22
2023-05-12T09:41:24.332Z,61.00
2023-05-12T09:42:24.349Z,54.77
2023-05-12T09:43:24.786Z,42.26
2023-05-12T09:44:24.404Z,31.93
2023-05-12T09:45:24.312Z,25.87
2023-05-12T09:46:24.356Z,28.17
2023-05-12T09:47:24.381Z,32.80
2023-05-12T09:48:26.844Z,25.00
2023-05-12T09:49:24.276Z,17.95
2023-05-12T09:50:24.302Z,13.39
2023-05-12T09:51:24.282Z,5.05
2023-05-12T09:52:24.309Z,3.77
2023-05-12T09:53:24.775Z,4.00
2023-05-12T09:54:24.343Z,10.41
2023-05-12T09:55:24.239Z,26.63
2023-05-12T09:56:24.240Z,26.13
2023-05-12T09:57:24.222Z,28.83
2023-05-12T09:58:24.247Z,35.74
2023-05-12T09:59:24.199Z,28.24
2023-05-12T10:00:38.453Z,33.05
2023-05-12T10:01:25.451Z,23.25
2023-05-12T10:02:24.326Z,14.90
2023-05-12T10:03:24.289Z,22.04
2023-05-12T10:04:24.208Z,28.04
2023-05-12T10:05:24.168Z,30.20
2023-05-12T10:06:24.175Z,31.74
2023-05-12T10:07:24.145Z,33.44
2023-05-12T10:08:24.200Z,34.87
2023-05-12T10:09:24.158Z,42.49
2023-05-12T10:10:24.798Z,44.30
2023-05-12T10:11:24.148Z,41.00
2023-05-12T10:12:24.132Z,32.69
2023-05-12T10:13:24.210Z,33.18
2023-05-12T10:14:24.265Z,27.72
2023-05-12T10:15:24.290Z,25.00
2023-05-12T10:16:24.321Z,27.92
2023-05-12T10:17:24.395Z,36.91
2023-05-12T10:18:24.372Z,34.10
2023-05-12T10:19:24.363Z,40.42
2023-05-12T10:20:24.368Z,45.93
2023-05-12T10:21:24.411Z,55.98
2023-05-12T10:22:24.469Z,63.87
2023-05-12T10:23:24.525Z,64.53
2023-05-12T10:24:24.560Z,72.49
2023-05-12T10:25:24.783Z,66.45
2023-05-12T10:26:24.612Z,62.84
2023-05-12T10:27:24.563Z,63.68
2023-05-12T10:28:24.623Z,71.26
2023-05-12T10:29:24.629Z,79.74
2023-05-12T10:30:24.679Z,83.46
2023-05-12T10:31:24.736Z,81.31
2023-05-12T10:32:24.784Z,81.01
2023-05-12T10:33:24.855Z,81.53
2023-05-12T10:34:24.889Z,76.02
2023-05-12T10:35:24.974Z,76.63
2023-05-12T10:36:24.954Z,79.96
2023-05-12T10:37:25.065Z,81.79
2023-05-12T10:38:25.104Z,84.75
2023-05-12T10:39:25.102Z,87.84
2023-05-12T10:40:25.179Z,88.49
2023-05-12T10:41:25.152Z,86.60
2023-05-12T10:42:25.203Z,93.52
2023-05-12T10:43:25.227Z,96.58
2023-05-12T10:44:25.295Z,101.55
2023-05-12T10:45:25.770Z,103.80
2023-05-12T10:46:25.821Z,102.01
2023-05-12T10:47:25.322Z,99.30
2023-05-12T10:48:25.306Z,95.49
2023-05-12T10:49:25.315Z,94.63
2023-05-12T10:50:25.358Z,96.30
2023-05-12T10:51:25.346Z,86.34
2023-05-12T10:52:25.451Z,93.33
2023-05-12T10:53:28.612Z,94.43
2023-05-12T10:54:26.447Z,90.59
2023-05-12T10:55:25.865Z,89.91
2023-05-12T10:56:25.684Z,89.29
2023-05-12T10:57:25.531Z,87.35
2023-05-12T10:58:25.948Z,83.34
2023-05-12T10:59:25.936Z,81.33
2023-05-12T11:00:25.995Z,81.66
2023-05-12T11:01:26.343Z,81.04
2023-05-12T11:02:26.184Z,78.07
2023-05-12T11:03:26.176Z,80.71
2023-05-12T11:04:25.480Z,79.62
2023-05-12T11:05:25.747Z,79.88
2023-05-12T11:06:25.692Z,76.34
2023-05-12T11:07:26.338Z,68.77
2023-05-12T11:08:26.656Z,72.39
2023-05-12T11:09:25.465Z,72.21
2023-05-12T11:10:26.628Z,74.15
2023-05-12T11:11:25.390Z,78.72
2023-05-12T11:12:25.336Z,76.65
2023-05-12T11:13:25.340Z,71.69
2023-05-12T11:14:25.331Z,71.44
2023-05-12T11:15:25.375Z,74.30
2023-05-12T11:16:25.447Z,73.95
2023-05-12T11:17:25.842Z,75.85
2023-05-12T11:18:25.546Z,74.34
2023-05-12T11:19:25.517Z,70.95
2023-05-12T11:20:26.426Z,70.31
2023-05-12T11:21:25.558Z,64.17
2023-05-12T11:22:25.567Z,63.36
2023-05-12T11:23:25.686Z,64.51
2023-05-12T11:24:25.716Z,61.21
2023-05-12T11:25:25.782Z,57.95
2023-05-12T11:26:25.919Z,60.26
2023-05-12T11:27:25.907Z,58.50
2023-05-12T11:28:25.950Z,61.36
2023-05-12T11:29:25.961Z,58.38
2023-05-12T11:30:26.046Z,60.12
2023-05-12T11:31:26.205Z,63.60
2023-05-12T11:32:26.298Z,68.13
2023-05-12T11:33:26.156Z,71.25
2023-05-12T11:34:26.237Z,69.32
2023-05-12T11:35:26.281Z,69.49
2023-05-12T11:36:26.313Z,68.45
2023-05-12T11:37:26.346Z,73.87
2023-05-12T11:38:26.373Z,76.80
2023-05-12T11:39:26.403Z,73.42
2023-05-12T11:40:26.446Z,75.59
2023-05-12T11:41:26.469Z,79.65
2023-05-12T11:42:26.531Z,74.80
2023-05-12T11:43:26.581Z,73.90
2023-05-12T11:44:26.582Z,77.41
2023-05-12T11:45:26.650Z,78.46
2023-05-12T11:46:26.745Z,79.47
2023-05-12T11:47:26.690Z,80.75
2023-05-12T11:48:26.708Z,79.10
2023-05-12T11:49:26.762Z,80.84
2023-05-12T11:50:26.800Z,81.64
2023-05-12T11:51:26.865Z,75.72
2023-05-12T11:52:26.858Z,73.93
2023-05-12T11:53:27.749Z,66.03
2023-05-12T11:54:26.906Z,72.56
2023-05-12T11:55:26.886Z,73.19
2023-05-12T11:56:26.970Z,71.73
2023-05-12T11:57:26.994Z,73.07
2023-05-12T11:58:27.077Z,70.09
2023-05-12T11:59:27.014Z,72.40
2023-05-12T12:00:27.049Z,74.40
2023-05-12T12:01:27.094Z,76.37
2023-05-12T12:02:27.190Z,70.07
2023-05-12T12:03:27.192Z,70.59
2023-05-12T12:04:27.169Z,69.98
2023-05-12T12:05:27.136Z,73.09
2023-05-12T12:06:27.187Z,78.30
2023-05-12T12:07:27.208Z,78.01
2023-05-12T12:08:27.218Z,78.57
2023-05-12T12:09:27.228Z,81.22
2023-05-12T12:10:27.191Z,82.56
2023-05-12T12:11:27.246Z,85.92
2023-05-12T12:12:27.201Z,89.17
2023-05-12T12:13:27.218Z,88.35
2023-05-12T12:14:27.230Z,91.78
2023-05-12T12:15:27.228Z,97.66
2023-05-12T12:16:27.322Z,98.34
2023-05-12T12:17:27.298Z,101.98
2023-05-12T12:18:27.288Z,102.69
2023-05-12T12:19:27.235Z,104.71
2023-05-12T12:20:27.245Z,113.85
2023-05-12T12:21:27.248Z,113.90
2023-05-12T12:22:27.241Z,120.00
2023-05-12T12:23:27.274Z,122.15
2023-05-12T12:24:27.391Z,124.48
2023-05-12T12:25:27.445Z,126.39
2023-05-12T12:26:27.481Z,126.79
2023-05-12T12:27:27.559Z,123.81
2023-05-12T12:28:27.590Z,127.68
2023-05-12T12:29:27.667Z,128.19
2023-05-12T12:30:27.718Z,129.19
2023-05-12T12:31:27.780Z,128.89
2023-05-12T12:32:27.849Z,130.71
2023-05-12T12:33:27.877Z,131.08
2023-05-12T12:34:27.913Z,131.13
2023-05-12T12:35:27.968Z,132.02
2023-05-12T12:36:27.977Z,135.99
2023-05-12T12:37:28.047Z,133.77
2023-05-12T12:38:28.111Z,133.14
2023-05-12T12:39:28.108Z,136.00
2023-05-12T12:40:28.186Z,136.39